sensor_id;sensor_type;location;lat;lon;timestamp;temperature;humidity
10868;DHT22;62667;48.698;8.762;2023-02-28T11:42:31;2.30;45.20
10868;DHT22;62667;48.698;8.762;2023-02-28T11:48:04;2.80;65.90
10868;DHT22;62667;48.698;8.762;2023-02-28T11:50:46;2.90;44.50
10868;DHT22;62667;48.698;8.762;2023-02-28T11:53:25;3.00;44.20
10868;DHT22;62667;48.698;8.762;2023-02-28T11:58:50;3.50;42.60
10868;DHT22;62667;48.698;8.762;2023-02-28T12:01:42;3.40;42.20
10868;DHT22;62667;48.698;8.762;2023-02-28T12:09:47;4.20;43.80
10868;DHT22;62667;48.698;8.762;2023-02-28T12:12:30;4.20;40.80
10868;DHT22;62667;48.698;8.762;2023-02-28T12:15:19;4.30;39.80
10868;DHT22;62667;48.698;8.762;2023-02-28T12:18:03;4.80;39.20
10868;DHT22;62667;48.698;8.762;2023-02-28T12:31:18;5.80;40.70
10868;DHT22;62667;48.698;8.762;2023-02-28T12:33:51;5.80;37.00
10868;DHT22;62667;48.698;8.762;2023-02-28T12:36:20;6.30;34.80
10868;DHT22;62667;48.698;8.762;2023-02-28T12:38:53;6.60;35.30
10868;DHT22;62667;48.698;8.762;2023-02-28T12:41:40;7.00;33.70
10868;DHT22;62667;48.698;8.762;2023-02-28T12:44:15;7.50;59.20
10868;DHT22;62667;48.698;8.762;2023-02-28T12:49:19;7.30;29.80
10868;DHT22;62667;48.698;8.762;2023-02-28T12:51:50;7.60;30.60
10868;DHT22;62667;48.698;8.762;2023-02-28T12:54:23;7.50;31.00
10868;DHT22;62667;48.698;8.762;2023-02-28T12:57:02;7.70;31.30
10868;DHT22;62667;48.698;8.762;2023-02-28T12:59:39;7.60;30.90
10868;DHT22;62667;48.698;8.762;2023-02-28T13:02:27;8.40;30.60
10868;DHT22;62667;48.698;8.762;2023-02-28T13:11:28;8.70;28.40
10868;DHT22;62667;48.698;8.762;2023-02-28T13:14:02;8.70;28.60
10868;DHT22;62667;48.698;8.762;2023-02-28T13:16:53;8.70;27.90
10868;DHT22;62667;48.698;8.762;2023-02-28T13:19:25;8.80;27.80
10868;DHT22;62667;48.698;8.762;2023-02-28T13:21:54;9.00;27.00
10868;DHT22;62667;48.698;8.762;2023-02-28T13:24:43;9.40;27.50
10868;DHT22;62667;48.698;8.762;2023-02-28T13:27:35;9.40;27.40
10868;DHT22;62667;48.698;8.762;2023-02-28T13:33:28;9.70;26.10
10868;DHT22;62667;48.698;8.762;2023-02-28T13:36:25;9.50;25.50
10868;DHT22;62667;48.698;8.762;2023-02-28T13:38:56;9.50;26.50
10868;DHT22;62667;48.698;8.762;2023-02-28T13:58:53;16.40;16.80
10868;DHT22;62667;48.698;8.762;2023-02-28T14:07:20;12.40;18.40
10868;DHT22;62667;48.698;8.762;2023-02-28T14:09:57;12.20;19.80
10868;DHT22;62667;48.698;8.762;2023-02-28T14:13:03;13.80;20.20
10868;DHT22;62667;48.698;8.762;2023-02-28T14:24:00;23.70;8.30
10868;DHT22;62667;48.698;8.762;2023-02-28T14:29:59;22.90;8.00
10868;DHT22;62667;48.698;8.762;2023-02-28T14:32:54;23.90;7.10
10868;DHT22;62667;48.698;8.762;2023-02-28T14:43:52;23.70;6.70
10868;DHT22;62667;48.698;8.762;2023-02-28T14:46:23;23.60;6.90
10868;DHT22;62667;48.698;8.762;2023-02-28T14:48:53;23.90;6.80
10868;DHT22;62667;48.698;8.762;2023-02-28T14:51:23;23.20;8.00
10868;DHT22;62667;48.698;8.762;2023-02-28T14:53:57;24.10;7.50
10868;DHT22;62667;48.698;8.762;2023-02-28T14:56:28;24.60;7.00
10868;DHT22;62667;48.698;8.762;2023-02-28T14:59:00;26.20;6.40
10868;DHT22;62667;48.698;8.762;2023-02-28T15:01:27;26.60;5.30
10868;DHT22;62667;48.698;8.762;2023-02-28T15:03:59;26.20;4.90
10868;DHT22;62667;48.698;8.762;2023-02-28T15:06:30;26.90;4.40
10868;DHT22;62667;48.698;8.762;2023-02-28T15:09:14;27.40;4.90
10868;DHT22;62667;48.698;8.762;2023-02-28T15:11:46;26.70;4.10
10868;DHT22;62667;48.698;8.762;2023-02-28T15:32:24;23.40;5.90
10868;DHT22;62667;48.698;8.762;2023-02-28T15:34:54;23.10;6.90
10868;DHT22;62667;48.698;8.762;2023-02-28T15:37:31;23.10;7.40
10868;DHT22;62667;48.698;8.762;2023-02-28T15:40:11;23.60;6.50
10868;DHT22;62667;48.698;8.762;2023-02-28T15:42:40;22.90;6.80
10868;DHT22;62667;48.698;8.762;2023-02-28T15:48:17;22.70;7.50
10868;DHT22;62667;48.698;8.762;2023-02-28T15:50:51;22.70;7.90
10868;DHT22;62667;48.698;8.762;2023-02-28T15:53:24;22.10;7.80
10868;DHT22;62667;48.698;8.762;2023-02-28T15:55:59;22.30;8.10
10868;DHT22;62667;48.698;8.762;2023-02-28T15:58:28;21.50;8.00
10868;DHT22;62667;48.698;8.762;2023-02-28T16:01:05;22.20;8.20
10868;DHT22;62667;48.698;8.762;2023-02-28T16:03:44;21.70;8.20
10868;DHT22;62667;48.698;8.762;2023-02-28T16:06:33;22.20;8.00
10868;DHT22;62667;48.698;8.762;2023-02-28T16:09:09;21.70;8.40
10868;DHT22;62667;48.698;8.762;2023-02-28T16:11:40;21.50;8.70
10868;DHT22;62667;48.698;8.762;2023-02-28T16:14:17;20.80;8.90
10868;DHT22;62667;48.698;8.762;2023-02-28T16:16:50;20.50;9.40
10868;DHT22;62667;48.698;8.762;2023-02-28T16:19:19;20.30;9.20
10868;DHT22;62667;48.698;8.762;2023-02-28T16:21:46;20.20;9.30
10868;DHT22;62667;48.698;8.762;2023-02-28T16:24:15;20.10;9.60
10868;DHT22;62667;48.698;8.762;2023-02-28T16:26:45;19.70;10.00
10868;DHT22;62667;48.698;8.762;2023-02-28T16:29:15;19.50;10.10
10868;DHT22;62667;48.698;8.762;2023-02-28T16:39:16;18.00;11.70
10868;DHT22;62667;48.698;8.762;2023-02-28T16:41:48;17.40;12.40
10868;DHT22;62667;48.698;8.762;2023-02-28T16:44:23;16.70;13.30
10868;DHT22;62667;48.698;8.762;2023-02-28T16:46:54;16.10;14.00
10868;DHT22;62667;48.698;8.762;2023-02-28T16:49:21;15.80;15.10
10868;DHT22;62667;48.698;8.762;2023-02-28T16:54:17;14.20;15.40
10868;DHT22;62667;48.698;8.762;2023-02-28T17:01:45;10.20;36.30
10868;DHT22;62667;48.698;8.762;2023-02-28T17:04:12;9.20;23.60
10868;DHT22;62667;48.698;8.762;2023-02-28T17:06:39;8.40;25.60
10868;DHT22;62667;48.698;8.762;2023-02-28T17:19:12;6.10;34.70
10868;DHT22;62667;48.698;8.762;2023-02-28T17:21:41;6.00;35.50
10868;DHT22;62667;48.698;8.762;2023-02-28T17:24:09;5.60;34.90
10868;DHT22;62667;48.698;8.762;2023-02-28T17:26:38;5.30;34.60
10868;DHT22;62667;48.698;8.762;2023-02-28T17:29:13;5.20;34.80
10868;DHT22;62667;48.698;8.762;2023-02-28T17:31:43;5.00;35.00
10868;DHT22;62667;48.698;8.762;2023-02-28T17:39:12;4.80;46.50
10868;DHT22;62667;48.698;8.762;2023-02-28T17:44:09;4.40;36.80
